Airport Name : Pafos Intl

Other Name : Pafos Intl

ICAO : LCPH

IATA : PFO

FAA :

Latitude : 34.718039

Longitude : 32.485731

Country : Cyprus

Local Date and Time : 09 Mar 2021 03:54

 

TAF (Terminal Aerodrome Forecast)

TAF LCPH 082330Z 0900/0924 34007KT 9999 FEW025 BECMG 0908/0911 17011KT BECMG 0915/0919 11008KT

 

METAR (METeorological Aerodrome Report)

LCPH 090130Z AUTO 01007KT 9999 NCD 11/06 Q1014

LCPH 090100Z AUTO 02007KT 9999 NCD 12/06 Q1014

LCPH 090030Z AUTO 36006KT 9999 NCD 12/06 Q1015

LCPH 090000Z 02006KT 340V040 9999 FEW030 16/09 Q1015

LCPH 082330Z 03007KT 9999 FEW030 16/09 Q1015

LCPH 082300Z 01003KT 290V040 9999 FEW030 16/09 Q1015

LCPH 082230Z 30007KT 270V010 9999 FEW030 16/10 Q1015

LCPH 082200Z 28010KT 9999 SCT030 16/09 Q1015

To Charter a Jet Click here.